Time;durP1;ratioP1;P1;durP2;ratioP2;P2;SDS_P1;SDS_P2;PMS_P1;PMS_P2;Temp;Humidity;BMP_temperature;BMP_pressure;BME280_temperature;BME280_humidity;BME280_pressure;Samples;Min_cycle;Max_cycle;Signal;HPM_P1;HPM_P2
2021/01/22 00:01:59;;;;;;;0.10;0.10;;;3.10;99.90;;;;;;5030472;28;20210;-73
2021/01/22 00:04:26;;;;;;;0.38;0.38;;;3.10;99.90;;;;;;5030626;28;20291;-73
2021/01/22 00:06:52;;;;;;;0.30;0.30;;;3.00;99.90;;;;;;5029089;28;20170;-73
2021/01/22 00:09:18;;;;;;;0.25;0.25;;;2.90;99.90;;;;;;5030604;28;20158;-73
2021/01/22 00:11:44;;;;;;;0.10;0.10;;;2.80;99.90;;;;;;5030354;28;20280;-74
2021/01/22 00:14:10;;;;;;;0.60;0.60;;;2.80;99.90;;;;;;5029123;28;20178;-73
2021/01/22 00:16:36;;;;;;;0.30;0.30;;;2.70;99.90;;;;;;5030407;28;20177;-73
2021/01/22 00:19:02;;;;;;;0.10;0.10;;;2.70;99.90;;;;;;5030137;28;20255;-73
2021/01/22 00:21:29;;;;;;;0.52;0.52;;;2.70;99.90;;;;;;5030079;28;20247;-73
2021/01/22 00:23:56;;;;;;;0.55;0.55;;;2.60;99.90;;;;;;5028835;28;20178;-72
2021/01/22 00:26:22;;;;;;;0.50;0.50;;;2.50;99.90;;;;;;5029009;28;20204;-73
2021/01/22 00:28:48;;;;;;;0.10;0.10;;;2.60;99.90;;;;;;5030347;28;20162;-72
2021/01/22 00:31:14;;;;;;;0.20;0.20;;;2.60;99.90;;;;;;5029971;28;20292;-72
2021/01/22 00:33:40;;;;;;;0.10;0.10;;;2.70;99.90;;;;;;5028814;28;20209;-72
2021/01/22 00:36:07;;;;;;;0.70;0.70;;;2.80;99.90;;;;;;5029943;28;20170;-72
2021/01/22 00:38:32;;;;;;;0.98;0.98;;;2.90;99.90;;;;;;5030231;28;20197;-72
2021/01/22 00:40:59;;;;;;;0.10;0.10;;;2.80;99.90;;;;;;5029614;28;20198;-72
2021/01/22 00:43:25;;;;;;;0.30;0.30;;;2.90;99.90;;;;;;5030846;28;20281;-73
2021/01/22 00:45:51;;;;;;;1.05;0.77;;;2.80;99.90;;;;;;5031162;28;20159;-72
2021/01/22 00:48:17;;;;;;;0.10;0.10;;;2.80;99.90;;;;;;5030814;28;20167;-72
2021/01/22 00:50:43;;;;;;;0.10;0.10;;;2.90;99.90;;;;;;5029339;28;20224;-72
2021/01/22 00:53:09;;;;;;;0.40;0.40;;;2.90;99.90;;;;;;5029434;28;20178;-72
2021/01/22 00:55:35;;;;;;;1.95;1.23;;;2.90;99.90;;;;;;5029691;28;20174;-72
2021/01/22 00:58:01;;;;;;;0.35;0.35;;;2.90;99.90;;;;;;5029225;28;20196;-72
2021/01/22 01:00:26;;;;;;;0.10;0.10;;;2.90;99.90;;;;;;5028615;28;20204;-72
2021/01/22 01:02:52;;;;;;;0.50;0.50;;;2.90;99.90;;;;;;5028267;28;20166;-72
2021/01/22 01:05:18;;;;;;;0.15;0.15;;;2.90;99.90;;;;;;5029458;28;20172;-72
2021/01/22 01:07:44;;;;;;;0.40;0.40;;;2.90;99.90;;;;;;5029446;28;20245;-72
2021/01/22 01:10:10;;;;;;;0.17;0.17;;;2.90;99.90;;;;;;5027904;28;20177;-73
2021/01/22 01:12:36;;;;;;;0.10;0.10;;;2.90;99.90;;;;;;5028053;28;20205;-73
2021/01/22 01:15:05;;;;;;;0.73;0.73;;;2.80;99.90;;;;;;5029411;28;20165;-72
2021/01/22 01:17:32;;;;;;;2.72;1.65;;;2.70;99.90;;;;;;5027890;28;20174;-72
2021/01/22 01:19:57;;;;;;;0.00;0.00;;;2.70;99.90;;;;;;5029253;28;20190;-72
2021/01/22 01:22:23;;;;;;;3.80;1.50;;;2.70;99.90;;;;;;5029211;28;20173;-72
2021/01/22 01:24:49;;;;;;;0.13;0.13;;;2.60;99.90;;;;;;5029154;28;20158;-72
2021/01/22 01:27:15;;;;;;;0.10;0.10;;;2.60;99.90;;;;;;5029078;28;20158;-71
2021/01/22 01:29:40;;;;;;;0.10;0.10;;;2.60;99.90;;;;;;5027554;28;20182;-72
2021/01/22 01:32:06;;;;;;;0.10;0.10;;;2.60;99.90;;;;;;5028879;28;20205;-72
2021/01/22 01:34:32;;;;;;;0.10;0.10;;;2.60;99.90;;;;;;5027545;28;20174;-72
2021/01/22 01:36:58;;;;;;;0.28;0.28;;;2.60;99.90;;;;;;5028954;28;20158;-72
2021/01/22 01:39:24;;;;;;;0.08;0.08;;;2.50;99.90;;;;;;5027327;28;20198;-72
2021/01/22 01:41:49;;;;;;;0.55;0.55;;;2.50;99.90;;;;;;5028442;28;20284;-72
2021/01/22 01:44:15;;;;;;;0.15;0.15;;;2.40;99.90;;;;;;5027413;28;20174;-72
2021/01/22 01:46:41;;;;;;;0.10;0.10;;;2.40;99.90;;;;;;5028730;28;20166;-72
2021/01/22 01:49:07;;;;;;;0.10;0.10;;;2.40;99.90;;;;;;5028882;28;20635;-72
2021/01/22 01:51:33;;;;;;;0.17;0.17;;;2.40;99.90;;;;;;5027796;28;20301;-72
2021/01/22 01:53:59;;;;;;;0.10;0.10;;;2.40;99.90;;;;;;5027253;28;20521;-72
2021/01/22 01:56:26;;;;;;;0.10;0.10;;;2.50;99.90;;;;;;5028683;28;20205;-72
2021/01/22 01:58:53;;;;;;;1.05;1.05;;;2.50;99.90;;;;;;5028261;28;20192;-72
2021/01/22 02:01:20;;;;;;;0.47;0.47;;;2.50;99.90;;;;;;5027019;28;20338;-74
2021/01/22 02:03:46;;;;;;;0.22;0.22;;;2.50;99.90;;;;;;5028610;28;20158;-74
2021/01/22 02:06:12;;;;;;;0.10;0.10;;;2.50;99.90;;;;;;5028428;28;20158;-74
2021/01/22 02:08:39;;;;;;;0.10;0.10;;;2.50;99.90;;;;;;5027196;28;20178;-73
2021/01/22 02:11:08;;;;;;;0.20;0.20;;;2.50;99.90;;;;;;5028271;28;20261;-74
2021/01/22 02:13:35;;;;;;;0.20;0.20;;;2.50;99.90;;;;;;5043685;28;20575;-72
2021/01/22 02:16:01;;;;;;;0.47;0.47;;;2.60;99.90;;;;;;5028516;28;20163;-73
2021/01/22 02:18:27;;;;;;;0.35;0.35;;;2.60;99.90;;;;;;5028263;28;20570;-73
2021/01/22 02:21:26;;;;;;;0.30;0.30;;;2.60;99.90;;;;;;5026947;28;20280;-73
2021/01/22 02:23:56;;;;;;;0.73;0.73;;;2.40;99.90;;;;;;5028094;28;20614;-73
2021/01/22 02:26:28;;;;;;;0.60;0.60;;;2.40;99.90;;;;;;5026990;28;20185;-74
2021/01/22 02:29:03;;;;;;;0.10;0.10;;;2.40;99.90;;;;;;5026584;28;20186;-73
2021/01/22 02:31:32;;;;;;;0.10;0.10;;;2.30;99.90;;;;;;5028121;28;20205;-73
2021/01/22 02:34:05;;;;;;;0.35;0.35;;;2.30;99.90;;;;;;5028028;28;20174;-73
2021/01/22 02:36:35;;;;;;;0.60;0.60;;;2.30;99.90;;;;;;5028258;28;20277;-73
2021/01/22 02:39:04;;;;;;;0.73;0.73;;;2.30;99.90;;;;;;5026805;28;20198;-74
2021/01/22 02:41:32;;;;;;;0.15;0.15;;;2.40;99.90;;;;;;5043077;28;20201;-74
2021/01/22 02:44:03;;;;;;;0.10;0.10;;;2.50;99.90;;;;;;5028199;28;20170;-73
2021/01/22 02:46:31;;;;;;;1.00;0.43;;;2.40;99.90;;;;;;5028108;28;20167;-73
2021/01/22 02:48:58;;;;;;;0.30;0.30;;;2.30;99.90;;;;;;5028211;28;20536;-74
2021/01/22 02:51:24;;;;;;;1.48;1.00;;;2.30;99.90;;;;;;5043033;28;20686;-74
2021/01/22 02:53:50;;;;;;;0.10;0.10;;;2.30;99.90;;;;;;5028073;28;20245;-73
2021/01/22 02:56:53;;;;;;;0.55;0.55;;;2.20;99.90;;;;;;5028134;28;20162;-74
2021/01/22 02:59:34;;;;;;;0.25;0.25;;;2.30;99.90;;;;;;5027677;28;20208;-73
2021/01/22 03:02:09;;;;;;;1.45;1.02;;;2.30;99.90;;;;;;5044724;28;20222;-73
2021/01/22 03:04:37;;;;;;;0.25;0.25;;;2.30;99.90;;;;;;5031722;28;20162;-74
2021/01/22 03:07:07;;;;;;;0.10;0.10;;;2.30;99.90;;;;;;5031742;28;20158;-73
2021/01/22 03:09:36;;;;;;;2.47;2.28;;;2.20;99.90;;;;;;5031402;28;20173;-73
2021/01/22 03:12:05;;;;;;;0.20;0.20;;;2.20;99.90;;;;;;5029729;28;20198;-73
2021/01/22 03:14:34;;;;;;;3.92;2.58;;;2.20;99.90;;;;;;5031316;28;20193;-73
2021/01/22 03:17:00;;;;;;;0.20;0.20;;;2.20;99.90;;;;;;5010358;28;20266;-73
2021/01/22 03:19:26;;;;;;;0.35;0.35;;;2.20;99.90;;;;;;5010390;28;20241;-74
2021/01/22 03:21:52;;;;;;;0.20;0.20;;;2.30;99.90;;;;;;5011582;28;20198;-73
2021/01/22 03:24:18;;;;;;;1.08;1.05;;;2.20;99.90;;;;;;5011535;28;20163;-73
2021/01/22 03:26:44;;;;;;;0.22;0.22;;;2.10;99.90;;;;;;5010204;28;20171;-73
2021/01/22 03:29:10;;;;;;;0.15;0.15;;;2.10;99.90;;;;;;5011543;28;20163;-72
2021/01/22 03:31:36;;;;;;;0.10;0.10;;;2.00;99.90;;;;;;5023164;28;20257;-73
2021/01/22 03:34:02;;;;;;;0.00;0.00;;;2.00;99.90;;;;;;5029464;28;20220;-73
2021/01/22 03:36:27;;;;;;;0.13;0.13;;;2.10;99.90;;;;;;5044559;28;20178;-73
2021/01/22 03:38:53;;;;;;;0.43;0.43;;;2.20;99.90;;;;;;5027717;28;20190;-74
2021/01/22 03:41:19;;;;;;;0.10;0.10;;;2.30;99.90;;;;;;5042687;28;20181;-74
2021/01/22 03:43:45;;;;;;;0.10;0.10;;;2.40;99.90;;;;;;5027254;28;20707;-74
2021/01/22 03:46:10;;;;;;;2.70;0.82;;;2.40;99.90;;;;;;5027127;28;20169;-74
2021/01/22 03:48:36;;;;;;;0.77;0.77;;;2.40;99.90;;;;;;5028488;28;20158;-75
2021/01/22 03:51:02;;;;;;;0.10;0.10;;;2.40;99.90;;;;;;5027320;28;20427;-74
2021/01/22 03:53:28;;;;;;;0.68;0.68;;;2.50;99.90;;;;;;5030755;28;20202;-75
2021/01/22 03:55:54;;;;;;;0.10;0.10;;;2.50;99.90;;;;;;5030451;28;20170;-74
2021/01/22 03:58:20;;;;;;;0.15;0.15;;;2.50;99.90;;;;;;5045530;28;20185;-74
2021/01/22 04:00:46;;;;;;;0.20;0.20;;;2.60;99.90;;;;;;5030456;28;20158;-73
2021/01/22 04:03:12;;;;;;;1.02;0.95;;;2.50;99.90;;;;;;5045844;28;20178;-73
2021/01/22 04:05:38;;;;;;;0.00;0.00;;;2.50;99.90;;;;;;5030447;28;20190;-72
2021/01/22 04:08:05;;;;;;;0.25;0.25;;;2.60;99.90;;;;;;5030226;28;20163;-72
2021/01/22 04:10:31;;;;;;;0.85;0.73;;;2.60;99.90;;;;;;5030249;28;20169;-73
2021/01/22 04:12:57;;;;;;;0.10;0.10;;;2.60;99.90;;;;;;5029727;28;20158;-73
2021/01/22 04:15:23;;;;;;;0.98;0.85;;;2.60;99.90;;;;;;5030272;28;20220;-73
2021/01/22 04:17:48;;;;;;;0.00;0.00;;;2.60;99.90;;;;;;5030292;28;20638;-73
2021/01/22 04:20:20;;;;;;;0.10;0.10;;;2.60;99.90;;;;;;5045053;28;20197;-73
2021/01/22 04:22:50;;;;;;;0.32;0.32;;;2.70;99.90;;;;;;5030029;28;20170;-73
2021/01/22 04:25:17;;;;;;;0.10;0.10;;;2.70;99.90;;;;;;5029866;28;20248;-73
2021/01/22 04:27:43;;;;;;;0.00;0.00;;;2.70;99.90;;;;;;5044990;28;20185;-73
2021/01/22 04:30:10;;;;;;;1.55;1.27;;;2.70;99.90;;;;;;5029768;28;20251;-73
2021/01/22 04:32:36;;;;;;;0.10;0.10;;;2.80;99.90;;;;;;5029842;28;20226;-73
2021/01/22 04:35:02;;;;;;;0.22;0.22;;;2.80;99.90;;;;;;5044916;28;20204;-73
2021/01/22 04:37:28;;;;;;;6.53;1.20;;;2.90;99.90;;;;;;5029586;28;20225;-73
2021/01/22 04:39:54;;;;;;;0.52;0.52;;;3.00;99.90;;;;;;5028076;28;20233;-73
2021/01/22 04:42:20;;;;;;;0.20;0.20;;;3.10;99.90;;;;;;5029330;28;20216;-73
2021/01/22 04:44:48;;;;;;;0.63;0.30;;;3.00;99.90;;;;;;5029417;28;20239;-74
2021/01/22 04:47:15;;;;;;;0.10;0.10;;;3.10;99.90;;;;;;5029509;28;20172;-73
2021/01/22 04:49:45;;;;;;;0.20;0.20;;;3.10;99.90;;;;;;5029288;28;20233;-73
2021/01/22 04:52:12;;;;;;;0.10;0.10;;;3.00;99.90;;;;;;5029237;28;20188;-73
2021/01/22 04:54:43;;;;;;;0.10;0.10;;;3.00;99.90;;;;;;5029324;28;20200;-73
2021/01/22 04:57:10;;;;;;;0.30;0.30;;;3.10;99.90;;;;;;5029431;28;20253;-74
2021/01/22 04:59:50;;;;;;;0.10;0.10;;;3.20;99.90;;;;;;5028947;28;20257;-74
2021/01/22 05:02:17;;;;;;;0.55;0.55;;;3.30;99.90;;;;;;5028867;28;20499;-74
2021/01/22 05:04:43;;;;;;;0.10;0.10;;;3.20;99.90;;;;;;5027830;28;20189;-74
2021/01/22 05:07:10;;;;;;;0.03;0.03;;;3.30;99.90;;;;;;5029168;28;20169;-73
2021/01/22 05:09:40;;;;;;;0.00;0.00;;;3.30;99.90;;;;;;5027429;28;20170;-74
2021/01/22 05:12:07;;;;;;;0.10;0.10;;;3.30;99.90;;;;;;5029077;28;20189;-74
2021/01/22 05:14:36;;;;;;;0.08;0.08;;;3.40;99.90;;;;;;5043905;28;20209;-74
2021/01/22 05:17:04;;;;;;;0.25;0.22;;;3.40;99.90;;;;;;5028994;28;20162;-73
2021/01/22 05:19:31;;;;;;;0.10;0.10;;;3.40;99.90;;;;;;5028740;28;20197;-74
2021/01/22 05:21:57;;;;;;;0.10;0.10;;;3.50;99.90;;;;;;5028845;28;20225;-73
2021/01/22 05:24:27;;;;;;;0.70;0.70;;;3.50;99.90;;;;;;5028614;28;20216;-73
2021/01/22 05:27:09;;;;;;;0.40;0.40;;;3.60;99.90;;;;;;5043299;28;20181;-73
2021/01/22 05:29:38;;;;;;;0.32;0.32;;;3.60;99.90;;;;;;5028599;28;20245;-73
2021/01/22 05:32:24;;;;;;;1.58;1.48;;;3.70;99.90;;;;;;5027155;28;20178;-74
2021/01/22 05:34:50;;;;;;;0.30;0.30;;;3.80;99.90;;;;;;5043674;28;20201;-73
2021/01/22 05:37:16;;;;;;;0.10;0.10;;;3.80;99.90;;;;;;5028500;28;20170;-73
2021/01/22 05:39:42;;;;;;;0.10;0.10;;;3.80;99.90;;;;;;5028659;28;20655;-74
2021/01/22 05:42:10;;;;;;;0.35;0.35;;;3.80;99.90;;;;;;5028313;28;20225;-74
2021/01/22 05:44:36;;;;;;;0.38;0.38;;;3.80;99.90;;;;;;5043416;28;20190;-73
2021/01/22 05:47:08;;;;;;;0.25;0.25;;;3.80;99.90;;;;;;5028579;28;20209;-72
2021/01/22 05:49:54;;;;;;;0.55;0.55;;;3.80;99.90;;;;;;5028504;28;20193;-72
2021/01/22 05:52:23;;;;;;;0.20;0.20;;;3.80;99.90;;;;;;5043755;28;20254;-73
2021/01/22 05:54:50;;;;;;;0.10;0.10;;;3.90;99.90;;;;;;5028476;28;20205;-73
2021/01/22 05:57:17;;;;;;;0.10;0.10;;;3.90;99.90;;;;;;5027155;28;20197;-73
2021/01/22 05:59:43;;;;;;;0.22;0.22;;;3.80;99.90;;;;;;5028336;28;20200;-73
2021/01/22 06:02:29;;;;;;;0.22;0.22;;;3.90;99.90;;;;;;5028150;28;20155;-73
2021/01/22 06:05:14;;;;;;;0.20;0.20;;;3.80;99.90;;;;;;5028255;28;20239;-73
2021/01/22 06:07:46;;;;;;;0.20;0.20;;;3.90;99.90;;;;;;5028264;28;20162;-73
2021/01/22 06:10:20;;;;;;;0.75;0.55;;;3.90;99.90;;;;;;5028038;28;20180;-73
2021/01/22 06:12:54;;;;;;;0.47;0.47;;;3.90;99.90;;;;;;5027986;28;20248;-74
2021/01/22 06:15:22;;;;;;;0.20;0.20;;;3.90;99.90;;;;;;5043207;28;20209;-72
2021/01/22 06:17:51;;;;;;;0.00;0.00;;;3.90;99.90;;;;;;5028186;28;20177;-73
2021/01/22 06:20:22;;;;;;;0.35;0.35;;;3.90;99.90;;;;;;5026467;28;20201;-74
2021/01/22 06:23:17;;;;;;;0.15;0.15;;;4.00;99.90;;;;;;5028132;28;20157;-74
2021/01/22 06:25:46;;;;;;;0.10;0.10;;;3.90;99.90;;;;;;5043406;28;20193;-74
2021/01/22 06:28:12;;;;;;;0.10;0.10;;;3.80;99.90;;;;;;5027968;28;20235;-75
2021/01/22 06:30:43;;;;;;;0.10;0.10;;;3.80;99.90;;;;;;5043266;28;20174;-75
2021/01/22 06:33:09;;;;;;;0.43;0.43;;;3.70;99.90;;;;;;5028241;28;20205;-74
2021/01/22 06:35:36;;;;;;;1.35;1.35;;;3.80;99.90;;;;;;5028262;28;20221;-74
2021/01/22 06:38:06;;;;;;;0.20;0.20;;;3.70;99.90;;;;;;5031597;28;20181;-74
2021/01/22 06:40:32;;;;;;;1.33;0.63;;;3.70;99.90;;;;;;5032026;28;20187;-74
2021/01/22 06:42:58;;;;;;;0.30;0.30;;;3.70;99.90;;;;;;5031754;28;20249;-73
2021/01/22 06:45:25;;;;;;;0.30;0.30;;;3.70;99.90;;;;;;5047332;28;20200;-75
2021/01/22 06:48:07;;;;;;;0.10;0.10;;;3.70;99.90;;;;;;5030709;28;20166;-74
2021/01/22 06:50:35;;;;;;;0.10;0.10;;;3.60;99.90;;;;;;5047311;28;20488;-73
2021/01/22 06:53:06;;;;;;;0.32;0.32;;;3.60;99.90;;;;;;5031849;28;20189;-74
2021/01/22 06:55:33;;;;;;;0.20;0.20;;;3.60;99.90;;;;;;5031829;28;20618;-75
2021/01/22 06:58:23;;;;;;;0.20;0.20;;;3.60;99.90;;;;;;5031692;28;20169;-74
2021/01/22 07:00:49;;;;;;;0.20;0.20;;;3.70;99.90;;;;;;5027652;28;20197;-73
2021/01/22 07:03:36;;;;;;;0.20;0.20;;;3.80;99.90;;;;;;5031666;28;20194;-73
2021/01/22 07:06:31;;;;;;;0.10;0.10;;;3.80;99.90;;;;;;5031697;28;20527;-72
2021/01/22 07:08:58;;;;;;;0.00;0.00;;;3.80;99.90;;;;;;5046614;28;20306;-73
2021/01/22 07:11:25;;;;;;;0.45;0.40;;;3.70;99.90;;;;;;5046764;28;20201;-73
2021/01/22 07:13:52;;;;;;;4.18;1.75;;;3.70;99.90;;;;;;5031380;28;20198;-73
2021/01/22 07:16:18;;;;;;;0.10;0.10;;;3.70;99.90;;;;;;5031252;28;20220;-72
2021/01/22 07:18:56;;;;;;;0.00;0.00;;;3.70;99.90;;;;;;5046041;28;20226;-73
2021/01/22 07:21:28;;;;;;;0.52;0.52;;;3.80;99.90;;;;;;5030880;28;20226;-73
2021/01/22 07:24:03;;;;;;;0.00;0.00;;;4.00;99.90;;;;;;5030549;28;20307;-72
2021/01/22 07:26:44;;;;;;;1.27;0.80;;;4.20;99.90;;;;;;5030688;28;20177;-73
2021/01/22 07:29:18;;;;;;;0.15;0.15;;;4.30;99.90;;;;;;5046056;28;20174;-72
2021/01/22 07:31:53;;;;;;;0.55;0.55;;;4.40;99.90;;;;;;5030583;28;20166;-73
2021/01/22 07:34:37;;;;;;;0.30;0.30;;;4.40;99.90;;;;;;5045817;28;20247;-72
2021/01/22 07:37:22;;;;;;;0.45;0.45;;;4.40;99.90;;;;;;5030688;28;20173;-72
2021/01/22 07:39:50;;;;;;;0.00;0.00;;;4.40;99.90;;;;;;5030725;28;20189;-72
2021/01/22 07:42:18;;;;;;;0.25;0.25;;;4.40;99.90;;;;;;5030258;28;20268;-72
2021/01/22 07:44:48;;;;;;;0.52;0.52;;;4.40;99.90;;;;;;5029068;28;20197;-73
2021/01/22 07:47:28;;;;;;;0.50;0.50;;;4.40;99.90;;;;;;5030195;28;20220;-73
2021/01/22 07:50:04;;;;;;;0.00;0.00;;;4.30;99.90;;;;;;5028549;28;20174;-73
2021/01/22 07:52:30;;;;;;;0.20;0.20;;;4.40;99.90;;;;;;5029274;28;20167;-72
2021/01/22 07:54:56;;;;;;;0.22;0.22;;;4.40;99.90;;;;;;5028274;28;20208;-74
2021/01/22 07:57:27;;;;;;;0.80;0.80;;;4.50;99.90;;;;;;5028750;28;20194;-74
2021/01/22 07:59:54;;;;;;;0.45;0.45;;;4.50;99.90;;;;;;5029670;28;20683;-73
2021/01/22 08:02:22;;;;;;;0.10;0.10;;;4.50;99.90;;;;;;5029407;28;20173;-73
2021/01/22 08:05:00;;;;;;;0.43;0.43;;;4.50;99.90;;;;;;5047246;28;20212;-72
2021/01/22 08:07:34;;;;;;;0.20;0.20;;;4.60;99.90;;;;;;5045564;28;20169;-72
2021/01/22 08:10:01;;;;;;;0.40;0.40;;;4.60;99.90;;;;;;5049299;28;20149;-72
2021/01/22 08:12:27;;;;;;;2.35;1.27;;;4.50;99.90;;;;;;5048000;28;20173;-72
2021/01/22 08:14:52;;;;;;;0.15;0.15;;;4.30;99.90;;;;;;5049007;28;20250;-73
2021/01/22 08:17:19;;;;;;;0.52;0.52;;;4.20;99.90;;;;;;5049652;28;20225;-72
2021/01/22 08:19:45;;;;;;;0.10;0.10;;;4.30;99.90;;;;;;5038837;28;20558;-73
2021/01/22 08:22:18;;;;;;;0.00;0.00;;;4.20;99.90;;;;;;5030022;28;20174;-73
2021/01/22 08:24:51;;;;;;;0.20;0.20;;;4.30;99.90;;;;;;5029708;28;20221;-72
2021/01/22 08:27:22;;;;;;;0.20;0.20;;;4.50;99.90;;;;;;5038543;28;20208;-72
2021/01/22 08:29:49;;;;;;;0.10;0.10;;;4.70;99.90;;;;;;5049788;28;20154;-72
2021/01/22 08:32:18;;;;;;;4.22;1.98;;;4.90;99.90;;;;;;5049828;28;20160;-73
2021/01/22 08:34:45;;;;;;;0.35;0.35;;;5.00;99.90;;;;;;5049631;28;20189;-72
2021/01/22 08:37:11;;;;;;;1.13;0.75;;;5.10;99.90;;;;;;5047939;28;20177;-72
2021/01/22 08:39:58;;;;;;;0.57;0.57;;;5.30;99.90;;;;;;5048335;28;20265;-73
2021/01/22 08:42:29;;;;;;;0.17;0.17;;;5.50;99.90;;;;;;5048267;28;20228;-73
2021/01/22 08:45:06;;;;;;;2.72;1.50;;;6.00;99.90;;;;;;5049642;28;20296;-73
2021/01/22 08:47:40;;;;;;;0.30;0.30;;;6.40;99.90;;;;;;5049585;28;20176;-73
2021/01/22 08:50:07;;;;;;;1.20;1.10;;;6.60;99.90;;;;;;5048035;28;20168;-73
2021/01/22 08:52:33;;;;;;;0.75;0.75;;;6.80;99.90;;;;;;5049357;28;20166;-73
2021/01/22 08:54:59;;;;;;;2.63;1.10;;;7.30;99.90;;;;;;5048127;28;20312;-72
2021/01/22 08:57:29;;;;;;;1.40;1.35;;;7.70;99.90;;;;;;5049374;28;20618;-73
2021/01/22 08:59:59;;;;;;;0.03;0.03;;;8.60;99.90;;;;;;5047764;28;20197;-73
2021/01/22 09:02:43;;;;;;;0.20;0.20;;;11.00;99.90;;;;;;5049063;28;20165;-73
2021/01/22 09:05:11;;;;;;;0.47;0.47;;;13.30;99.90;;;;;;5047652;28;20211;-73
2021/01/22 09:07:38;;;;;;;0.10;0.10;;;12.10;99.90;;;;;;5025612;28;20178;-73
2021/01/22 09:10:06;;;;;;;0.30;0.30;;;11.10;99.90;;;;;;5015731;28;20182;-73
2021/01/22 09:12:33;;;;;;;0.10;0.10;;;10.30;99.90;;;;;;5027934;28;20188;-74
2021/01/22 09:15:06;;;;;;;0.93;0.75;;;11.30;99.90;;;;;;5027867;28;20198;-70
2021/01/22 09:17:41;;;;;;;1.10;0.93;;;13.30;99.90;;;;;;5029104;28;20166;-72
2021/01/22 09:20:08;;;;;;;0.38;0.38;;;14.20;99.90;;;;;;5028823;28;20196;-72
2021/01/22 09:22:34;;;;;;;2.75;0.95;;;14.60;99.90;;;;;;5028876;28;20154;-72
2021/01/22 09:25:06;;;;;;;1.65;0.82;;;14.70;99.90;;;;;;5020010;28;20212;-72
2021/01/22 09:27:35;;;;;;;1.75;0.85;;;13.20;99.90;;;;;;5023127;28;20528;-72
2021/01/22 09:30:01;;;;;;;0.10;0.10;;;11.30;99.90;;;;;;5009105;28;20167;-72
2021/01/22 09:32:29;;;;;;;0.15;0.15;;;10.60;99.90;;;;;;5012570;28;20185;-72
2021/01/22 09:34:56;;;;;;;0.20;0.20;;;11.00;99.90;;;;;;5023944;28;20209;-71
2021/01/22 09:37:22;;;;;;;0.20;0.20;;;11.20;99.90;;;;;;5008672;28;20178;-72
2021/01/22 09:39:47;;;;;;;0.63;0.63;;;10.90;99.90;;;;;;5023394;28;20225;-72
2021/01/22 09:42:13;;;;;;;3.72;0.40;;;10.80;99.90;;;;;;5027580;28;20740;-72
2021/01/22 09:44:39;;;;;;;0.30;0.30;;;10.90;99.90;;;;;;5028151;28;20213;-72
2021/01/22 09:47:05;;;;;;;0.20;0.20;;;11.10;99.90;;;;;;5028446;28;20188;-71
2021/01/22 09:49:31;;;;;;;0.17;0.17;;;11.30;99.90;;;;;;5027154;28;20185;-71
2021/01/22 09:51:57;;;;;;;0.63;0.63;;;11.00;99.90;;;;;;5028507;28;20158;-71
2021/01/22 09:54:23;;;;;;;0.13;0.13;;;10.60;99.90;;;;;;5028270;28;20253;-71
2021/01/22 09:56:49;;;;;;;2.17;0.85;;;10.50;99.90;;;;;;5027182;28;20178;-72
2021/01/22 09:59:15;;;;;;;0.43;0.43;;;10.60;99.90;;;;;;5023586;28;20235;-72
2021/01/22 10:01:40;;;;;;;0.10;0.10;;;10.80;99.90;;;;;;5008738;28;20151;-73
2021/01/22 10:04:06;;;;;;;0.40;0.40;;;12.60;99.90;;;;;;5023593;28;20224;-73
2021/01/22 10:06:33;;;;;;;0.10;0.10;;;13.00;99.90;;;;;;5023853;28;20631;-72
2021/01/22 10:08:59;;;;;;;0.10;0.10;;;13.60;99.90;;;;;;5008621;28;20226;-72
2021/01/22 10:11:25;;;;;;;0.10;0.10;;;14.80;99.90;;;;;;5009652;28;20204;-72
2021/01/22 10:13:55;;;;;;;0.08;0.08;;;16.20;99.90;;;;;;5015170;28;20198;-72
2021/01/22 10:16:25;;;;;;;0.20;0.20;;;16.90;99.90;;;;;;5034865;28;20531;-72
2021/01/22 10:18:54;;;;;;;0.05;0.05;;;16.60;99.90;;;;;;5034684;28;20269;-72
2021/01/22 10:21:21;;;;;;;1.52;0.85;;;15.40;99.90;;;;;;5034330;28;20188;-72
2021/01/22 10:23:49;;;;;;;0.03;0.03;;;15.00;99.90;;;;;;5033124;28;20193;-72
2021/01/22 10:26:16;;;;;;;0.40;0.40;;;15.90;99.90;;;;;;5034839;28;20540;-73
2021/01/22 10:28:42;;;;;;;0.30;0.30;;;17.90;99.90;;;;;;5034947;28;20162;-72
2021/01/22 10:31:08;;;;;;;0.08;0.08;;;20.10;99.90;;;;;;5033668;28;20173;-72
2021/01/22 10:33:34;;;;;;;0.43;0.20;;;21.10;99.90;;;;;;5034953;28;20220;-73
2021/01/22 10:36:00;;;;;;;0.32;0.32;;;22.30;99.90;;;;;;5035126;28;20172;-72
2021/01/22 10:38:27;;;;;;;0.43;0.43;;;22.90;99.90;;;;;;5034486;28;20319;-72
2021/01/22 10:40:54;;;;;;;0.30;0.30;;;22.80;99.90;;;;;;5030120;28;20189;-74
2021/01/22 10:43:21;;;;;;;0.70;0.68;;;22.50;99.90;;;;;;5014843;28;20264;-74
2021/01/22 10:45:47;;;;;;;0.30;0.30;;;22.70;99.90;;;;;;5029987;28;20204;-75
2021/01/22 10:48:13;;;;;;;0.45;0.10;;;23.80;99.90;;;;;;5034577;28;20185;-75
2021/01/22 10:50:39;;;;;;;0.52;0.25;;;24.10;99.90;;;;;;5033942;28;20178;-72
2021/01/22 10:53:04;;;;;;;0.35;0.32;;;25.10;99.90;;;;;;5034499;28;20177;-70
2021/01/22 10:55:30;;;;;;;0.30;0.30;;;24.80;99.90;;;;;;5034143;28;20203;-71
2021/01/22 10:57:56;;;;;;;0.35;0.10;;;24.60;99.90;;;;;;5033061;28;20177;-70
2021/01/22 11:00:22;;;;;;;3.40;0.45;;;23.30;99.90;;;;;;5032817;28;20205;-71
2021/01/22 11:02:48;;;;;;;0.45;0.35;;;22.20;99.90;;;;;;5034406;28;20287;-70
2021/01/22 11:05:14;;;;;;;0.40;0.40;;;21.40;99.90;;;;;;5034320;28;20201;-70
2021/01/22 11:07:40;;;;;;;1.73;0.45;;;20.40;99.90;;;;;;5034207;28;20165;-71
2021/01/22 11:10:06;;;;;;;0.90;0.40;;;19.70;99.90;;;;;;5034318;28;20188;-72
2021/01/22 11:12:32;;;;;;;0.52;0.50;;;19.90;99.90;;;;;;5034482;28;20162;-72
2021/01/22 11:14:58;;;;;;;0.40;0.40;;;20.80;99.90;;;;;;5034413;28;20213;-72
2021/01/22 11:17:24;;;;;;;3.47;1.27;;;20.50;99.90;;;;;;5034232;28;20169;-72
2021/01/22 11:19:50;;;;;;;0.38;0.38;;;20.50;99.90;;;;;;5033878;28;20189;-71
2021/01/22 11:22:16;;;;;;;0.28;0.28;;;20.20;99.90;;;;;;5033608;28;20622;-72
2021/01/22 11:24:42;;;;;;;0.10;0.10;;;20.40;99.90;;;;;;5030967;28;20185;-72
2021/01/22 11:27:08;;;;;;;0.20;0.10;;;20.80;99.90;;;;;;5030957;28;20154;-72
2021/01/22 11:29:34;;;;;;;0.38;0.38;;;19.70;99.90;;;;;;5030830;28;20160;-71
2021/01/22 11:32:00;;;;;;;0.47;0.32;;;19.60;99.90;;;;;;5031033;28;20579;-71
2021/01/22 11:34:25;;;;;;;4.10;0.80;;;20.40;99.90;;;;;;5030715;28;20235;-71
2021/01/22 11:36:51;;;;;;;3.85;0.32;;;19.80;99.90;;;;;;5031038;28;20158;-71
2021/01/22 11:39:17;;;;;;;1.00;1.00;;;19.00;99.90;;;;;;5030649;28;20220;-72
2021/01/22 11:41:43;;;;;;;0.40;0.35;;;17.30;99.90;;;;;;5030859;28;20166;-72
2021/01/22 11:44:09;;;;;;;0.10;0.10;;;16.20;99.90;;;;;;5030938;28;20194;-72
2021/01/22 11:46:37;;;;;;;0.00;0.00;;;15.10;99.90;;;;;;5026173;28;20197;-72
2021/01/22 11:49:03;;;;;;;0.00;0.00;;;14.80;99.90;;;;;;5019313;28;20165;-71
2021/01/22 11:51:28;;;;;;;0.10;0.10;;;14.60;99.90;;;;;;5030527;28;20241;-72
2021/01/22 11:53:54;;;;;;;0.57;0.57;;;14.80;99.90;;;;;;5030356;28;20201;-73
2021/01/22 11:56:20;;;;;;;1.45;0.30;;;14.70;99.90;;;;;;5028807;28;20189;-72
2021/01/22 11:58:46;;;;;;;0.10;0.10;;;14.50;99.90;;;;;;5030312;28;20190;-72
2021/01/22 12:01:11;;;;;;;0.10;0.10;;;14.20;99.90;;;;;;5028952;28;20166;-72
2021/01/22 12:03:37;;;;;;;0.05;0.05;;;14.20;99.90;;;;;;5028792;28;20166;-72
2021/01/22 12:06:03;;;;;;;0.10;0.10;;;14.90;99.90;;;;;;5028783;28;20249;-72
2021/01/22 12:08:29;;;;;;;0.00;0.00;;;16.00;99.90;;;;;;5030056;28;20161;-72
2021/01/22 12:10:54;;;;;;;5.18;0.88;;;16.40;99.90;;;;;;5029944;28;20241;-72
2021/01/22 12:13:20;;;;;;;0.10;0.10;;;16.20;99.90;;;;;;5029965;28;20154;-71
2021/01/22 12:15:46;;;;;;;0.00;0.00;;;15.60;99.90;;;;;;5029869;28;20194;-71
2021/01/22 12:18:12;;;;;;;0.10;0.10;;;15.00;99.90;;;;;;5028684;28;20250;-71
2021/01/22 12:20:38;;;;;;;1.65;0.50;;;14.50;99.90;;;;;;5029686;28;20190;-71
2021/01/22 12:23:04;;;;;;;0.00;0.00;;;14.20;99.90;;;;;;5029689;28;20299;-73
2021/01/22 12:25:30;;;;;;;0.00;0.00;;;14.70;99.90;;;;;;5029756;28;20627;-73
2021/01/22 12:27:56;;;;;;;1.45;0.80;;;14.60;99.90;;;;;;5029408;28;20162;-73
2021/01/22 12:30:22;;;;;;;0.40;0.40;;;14.40;99.90;;;;;;5029457;28;20163;-73
2021/01/22 12:32:48;;;;;;;0.10;0.10;;;14.10;99.90;;;;;;5029143;28;20194;-74
2021/01/22 12:35:16;;;;;;;1.40;1.27;;;13.80;99.90;;;;;;5029104;28;20183;-73
2021/01/22 12:37:42;;;;;;;0.20;0.20;;;13.50;99.90;;;;;;5029660;28;20483;-73
2021/01/22 12:40:08;;;;;;;0.20;0.20;;;13.40;99.90;;;;;;5027693;28;20193;-73
2021/01/22 12:42:34;;;;;;;1.15;0.55;;;13.10;99.90;;;;;;5028646;28;20272;-73
2021/01/22 12:44:59;;;;;;;0.15;0.15;;;12.90;99.90;;;;;;5029231;28;20178;-73
2021/01/22 12:47:25;;;;;;;0.13;0.13;;;12.90;99.90;;;;;;5017794;28;20263;-72
2021/01/22 12:49:52;;;;;;;1.85;1.00;;;13.10;99.90;;;;;;5024193;28;20177;-72
2021/01/22 12:52:17;;;;;;;0.70;0.70;;;13.40;99.90;;;;;;5029348;28;20172;-73
2021/01/22 12:54:43;;;;;;;0.25;0.17;;;13.50;99.90;;;;;;5028979;28;20241;-74
2021/01/22 12:57:09;;;;;;;0.10;0.10;;;13.40;99.90;;;;;;5029274;28;20213;-73
2021/01/22 12:59:35;;;;;;;0.50;0.50;;;13.20;99.90;;;;;;5029238;28;20257;-73